sensor_id;sensor_type;location;lat;lon;timestamp;P1;durP1;ratioP1;P2;durP2;ratioP2
40757;SDS011;26462;47.384;19.218;2023-04-24T00:01:16;8.13;;;4.80;;
40757;SDS011;26462;47.384;19.218;2023-04-24T00:03:43;6.18;;;4.75;;
40757;SDS011;26462;47.384;19.218;2023-04-24T00:06:10;14.07;;;5.80;;
40757;SDS011;26462;47.384;19.218;2023-04-24T00:08:37;9.07;;;5.47;;
40757;SDS011;26462;47.384;19.218;2023-04-24T00:11:05;5.88;;;4.57;;
40757;SDS011;26462;47.384;19.218;2023-04-24T00:13:32;6.47;;;4.50;;
40757;SDS011;26462;47.384;19.218;2023-04-24T00:15:59;8.48;;;5.07;;
40757;SDS011;26462;47.384;19.218;2023-04-24T00:18:26;7.43;;;5.00;;
40757;SDS011;26462;47.384;19.218;2023-04-24T00:20:53;9.55;;;5.35;;
40757;SDS011;26462;47.384;19.218;2023-04-24T00:23:20;10.70;;;5.22;;
40757;SDS011;26462;47.384;19.218;2023-04-24T00:25:47;9.70;;;5.07;;
40757;SDS011;26462;47.384;19.218;2023-04-24T00:28:14;8.10;;;5.00;;
40757;SDS011;26462;47.384;19.218;2023-04-24T00:30:42;8.80;;;5.82;;
40757;SDS011;26462;47.384;19.218;2023-04-24T00:33:09;10.02;;;6.15;;
40757;SDS011;26462;47.384;19.218;2023-04-24T00:35:36;10.73;;;6.15;;
40757;SDS011;26462;47.384;19.218;2023-04-24T00:38:03;9.55;;;6.28;;
40757;SDS011;26462;47.384;19.218;2023-04-24T00:40:30;9.13;;;5.72;;
40757;SDS011;26462;47.384;19.218;2023-04-24T00:42:57;10.13;;;5.70;;
40757;SDS011;26462;47.384;19.218;2023-04-24T00:45:24;9.63;;;5.80;;
40757;SDS011;26462;47.384;19.218;2023-04-24T00:47:52;8.23;;;5.35;;
40757;SDS011;26462;47.384;19.218;2023-04-24T00:50:21;10.73;;;6.07;;
40757;SDS011;26462;47.384;19.218;2023-04-24T00:52:49;10.80;;;5.93;;
40757;SDS011;26462;47.384;19.218;2023-04-24T00:55:17;7.57;;;5.20;;
40757;SDS011;26462;47.384;19.218;2023-04-24T00:57:44;7.95;;;5.40;;
40757;SDS011;26462;47.384;19.218;2023-04-24T01:00:13;9.68;;;5.78;;
40757;SDS011;26462;47.384;19.218;2023-04-24T01:02:42;11.63;;;5.68;;
40757;SDS011;26462;47.384;19.218;2023-04-24T01:05:12;9.30;;;5.80;;
40757;SDS011;26462;47.384;19.218;2023-04-24T01:07:43;8.18;;;5.45;;
40757;SDS011;26462;47.384;19.218;2023-04-24T01:10:13;9.35;;;5.35;;
40757;SDS011;26462;47.384;19.218;2023-04-24T01:12:41;12.60;;;5.68;;
40757;SDS011;26462;47.384;19.218;2023-04-24T01:15:10;8.23;;;5.65;;
40757;SDS011;26462;47.384;19.218;2023-04-24T01:17:37;10.48;;;5.75;;
40757;SDS011;26462;47.384;19.218;2023-04-24T01:20:05;12.77;;;5.47;;
40757;SDS011;26462;47.384;19.218;2023-04-24T01:22:33;10.13;;;6.10;;
40757;SDS011;26462;47.384;19.218;2023-04-24T01:25:01;8.15;;;5.90;;
40757;SDS011;26462;47.384;19.218;2023-04-24T01:27:29;8.82;;;5.35;;
40757;SDS011;26462;47.384;19.218;2023-04-24T01:29:56;9.80;;;4.95;;
40757;SDS011;26462;47.384;19.218;2023-04-24T01:32:23;7.10;;;4.82;;
40757;SDS011;26462;47.384;19.218;2023-04-24T01:34:51;10.43;;;5.70;;
40757;SDS011;26462;47.384;19.218;2023-04-24T01:37:18;9.30;;;5.90;;
40757;SDS011;26462;47.384;19.218;2023-04-24T01:39:46;9.73;;;6.20;;
40757;SDS011;26462;47.384;19.218;2023-04-24T01:42:13;9.63;;;5.95;;
40757;SDS011;26462;47.384;19.218;2023-04-24T01:44:41;8.88;;;6.07;;
40757;SDS011;26462;47.384;19.218;2023-04-24T01:47:08;11.80;;;6.75;;
40757;SDS011;26462;47.384;19.218;2023-04-24T01:49:37;12.07;;;6.45;;
40757;SDS011;26462;47.384;19.218;2023-04-24T01:52:06;8.27;;;6.00;;
40757;SDS011;26462;47.384;19.218;2023-04-24T01:54:33;7.60;;;5.93;;
40757;SDS011;26462;47.384;19.218;2023-04-24T01:57:00;8.02;;;5.50;;
40757;SDS011;26462;47.384;19.218;2023-04-24T01:59:29;8.82;;;6.15;;
40757;SDS011;26462;47.384;19.218;2023-04-24T02:01:59;10.60;;;5.70;;
40757;SDS011;26462;47.384;19.218;2023-04-24T02:04:26;9.35;;;6.00;;
40757;SDS011;26462;47.384;19.218;2023-04-24T02:06:53;9.18;;;5.15;;
40757;SDS011;26462;47.384;19.218;2023-04-24T02:09:20;10.27;;;5.80;;
40757;SDS011;26462;47.384;19.218;2023-04-24T02:11:47;14.65;;;6.47;;
40757;SDS011;26462;47.384;19.218;2023-04-24T02:14:15;8.65;;;5.40;;
40757;SDS011;26462;47.384;19.218;2023-04-24T02:16:42;10.55;;;5.43;;
40757;SDS011;26462;47.384;19.218;2023-04-24T02:19:10;10.48;;;5.90;;
40757;SDS011;26462;47.384;19.218;2023-04-24T02:21:37;12.32;;;6.75;;
40757;SDS011;26462;47.384;19.218;2023-04-24T02:24:07;8.45;;;6.20;;
40757;SDS011;26462;47.384;19.218;2023-04-24T02:26:34;10.43;;;6.80;;
40757;SDS011;26462;47.384;19.218;2023-04-24T02:29:01;13.10;;;6.72;;
40757;SDS011;26462;47.384;19.218;2023-04-24T02:31:28;14.88;;;7.68;;
40757;SDS011;26462;47.384;19.218;2023-04-24T02:33:55;11.57;;;7.53;;
40757;SDS011;26462;47.384;19.218;2023-04-24T02:36:22;9.15;;;6.65;;
40757;SDS011;26462;47.384;19.218;2023-04-24T02:38:49;13.00;;;7.10;;
40757;SDS011;26462;47.384;19.218;2023-04-24T02:41:17;13.82;;;7.60;;
40757;SDS011;26462;47.384;19.218;2023-04-24T02:43:44;9.93;;;7.38;;
40757;SDS011;26462;47.384;19.218;2023-04-24T02:46:11;12.77;;;8.13;;
40757;SDS011;26462;47.384;19.218;2023-04-24T02:48:38;12.60;;;7.80;;
40757;SDS011;26462;47.384;19.218;2023-04-24T02:51:05;11.95;;;8.07;;
40757;SDS011;26462;47.384;19.218;2023-04-24T02:53:33;12.52;;;7.70;;
40757;SDS011;26462;47.384;19.218;2023-04-24T02:56:01;13.85;;;7.60;;
40757;SDS011;26462;47.384;19.218;2023-04-24T02:58:28;14.90;;;7.85;;
40757;SDS011;26462;47.384;19.218;2023-04-24T03:00:55;10.65;;;7.45;;
40757;SDS011;26462;47.384;19.218;2023-04-24T03:03:22;12.90;;;7.75;;
40757;SDS011;26462;47.384;19.218;2023-04-24T03:05:50;11.00;;;7.30;;
40757;SDS011;26462;47.384;19.218;2023-04-24T03:08:18;12.13;;;7.45;;
40757;SDS011;26462;47.384;19.218;2023-04-24T03:10:45;11.07;;;7.32;;
40757;SDS011;26462;47.384;19.218;2023-04-24T03:13:14;11.63;;;7.07;;
40757;SDS011;26462;47.384;19.218;2023-04-24T03:15:42;18.38;;;7.75;;
40757;SDS011;26462;47.384;19.218;2023-04-24T03:18:09;13.40;;;7.47;;
40757;SDS011;26462;47.384;19.218;2023-04-24T03:20:37;10.50;;;7.10;;
40757;SDS011;26462;47.384;19.218;2023-04-24T03:23:04;11.82;;;7.53;;
40757;SDS011;26462;47.384;19.218;2023-04-24T03:25:31;11.77;;;7.43;;
40757;SDS011;26462;47.384;19.218;2023-04-24T03:27:58;12.20;;;7.50;;
40757;SDS011;26462;47.384;19.218;2023-04-24T03:30:38;14.38;;;7.47;;
40757;SDS011;26462;47.384;19.218;2023-04-24T03:33:06;12.02;;;7.80;;
40757;SDS011;26462;47.384;19.218;2023-04-24T03:35:37;12.93;;;7.93;;
40757;SDS011;26462;47.384;19.218;2023-04-24T03:38:08;10.43;;;6.35;;
40757;SDS011;26462;47.384;19.218;2023-04-24T03:40:53;12.60;;;7.00;;
40757;SDS011;26462;47.384;19.218;2023-04-24T03:43:40;9.25;;;6.57;;
40757;SDS011;26462;47.384;19.218;2023-04-24T03:46:07;8.57;;;5.65;;
40757;SDS011;26462;47.384;19.218;2023-04-24T03:48:40;9.40;;;6.25;;
40757;SDS011;26462;47.384;19.218;2023-04-24T03:51:08;9.48;;;6.63;;
40757;SDS011;26462;47.384;19.218;2023-04-24T03:53:38;11.25;;;6.38;;
40757;SDS011;26462;47.384;19.218;2023-04-24T03:56:05;11.82;;;5.38;;
40757;SDS011;26462;47.384;19.218;2023-04-24T03:58:33;9.50;;;6.45;;
40757;SDS011;26462;47.384;19.218;2023-04-24T04:01:00;8.60;;;6.28;;
40757;SDS011;26462;47.384;19.218;2023-04-24T04:03:43;8.25;;;5.70;;
40757;SDS011;26462;47.384;19.218;2023-04-24T04:06:13;11.18;;;5.75;;
40757;SDS011;26462;47.384;19.218;2023-04-24T04:08:40;6.95;;;4.55;;
40757;SDS011;26462;47.384;19.218;2023-04-24T04:11:08;7.13;;;5.38;;
40757;SDS011;26462;47.384;19.218;2023-04-24T04:13:35;8.43;;;6.03;;
40757;SDS011;26462;47.384;19.218;2023-04-24T04:16:02;8.82;;;5.38;;
40757;SDS011;26462;47.384;19.218;2023-04-24T04:18:29;11.05;;;5.72;;
40757;SDS011;26462;47.384;19.218;2023-04-24T04:20:57;8.27;;;5.60;;
40757;SDS011;26462;47.384;19.218;2023-04-24T04:23:25;10.38;;;5.38;;
40757;SDS011;26462;47.384;19.218;2023-04-24T04:26:13;9.50;;;5.82;;
40757;SDS011;26462;47.384;19.218;2023-04-24T04:28:57;12.07;;;5.93;;
40757;SDS011;26462;47.384;19.218;2023-04-24T04:31:25;10.68;;;5.95;;
40757;SDS011;26462;47.384;19.218;2023-04-24T04:33:52;11.40;;;6.03;;
40757;SDS011;26462;47.384;19.218;2023-04-24T04:36:20;15.15;;;7.95;;
40757;SDS011;26462;47.384;19.218;2023-04-24T04:38:53;10.43;;;5.95;;
40757;SDS011;26462;47.384;19.218;2023-04-24T04:41:44;8.88;;;6.57;;
40757;SDS011;26462;47.384;19.218;2023-04-24T04:44:13;9.48;;;6.47;;
40757;SDS011;26462;47.384;19.218;2023-04-24T04:46:41;7.85;;;5.53;;
40757;SDS011;26462;47.384;19.218;2023-04-24T04:49:29;11.13;;;5.97;;
40757;SDS011;26462;47.384;19.218;2023-04-24T04:51:57;11.45;;;5.85;;
40757;SDS011;26462;47.384;19.218;2023-04-24T04:54:25;20.23;;;7.30;;
40757;SDS011;26462;47.384;19.218;2023-04-24T04:56:53;10.85;;;5.75;;
40757;SDS011;26462;47.384;19.218;2023-04-24T04:59:21;10.18;;;6.10;;
40757;SDS011;26462;47.384;19.218;2023-04-24T05:01:53;10.90;;;5.97;;
40757;SDS011;26462;47.384;19.218;2023-04-24T05:04:20;11.52;;;5.85;;
40757;SDS011;26462;47.384;19.218;2023-04-24T05:06:48;8.25;;;6.15;;
40757;SDS011;26462;47.384;19.218;2023-04-24T05:09:17;13.27;;;6.95;;
40757;SDS011;26462;47.384;19.218;2023-04-24T05:11:52;10.60;;;7.00;;
40757;SDS011;26462;47.384;19.218;2023-04-24T05:14:21;16.25;;;8.88;;
40757;SDS011;26462;47.384;19.218;2023-04-24T05:16:49;9.88;;;6.40;;
40757;SDS011;26462;47.384;19.218;2023-04-24T05:19:19;13.15;;;7.10;;
40757;SDS011;26462;47.384;19.218;2023-04-24T05:21:46;10.50;;;6.82;;
40757;SDS011;26462;47.384;19.218;2023-04-24T05:24:14;9.85;;;6.40;;
40757;SDS011;26462;47.384;19.218;2023-04-24T05:26:59;8.68;;;5.90;;
40757;SDS011;26462;47.384;19.218;2023-04-24T05:29:34;10.57;;;6.28;;
40757;SDS011;26462;47.384;19.218;2023-04-24T05:32:02;9.10;;;5.65;;
40757;SDS011;26462;47.384;19.218;2023-04-24T05:34:30;11.30;;;6.55;;
40757;SDS011;26462;47.384;19.218;2023-04-24T05:36:57;10.73;;;6.80;;
40757;SDS011;26462;47.384;19.218;2023-04-24T05:39:25;10.07;;;6.43;;
40757;SDS011;26462;47.384;19.218;2023-04-24T05:41:53;9.70;;;5.72;;
40757;SDS011;26462;47.384;19.218;2023-04-24T05:44:22;10.45;;;6.40;;
40757;SDS011;26462;47.384;19.218;2023-04-24T05:46:49;12.13;;;6.40;;
40757;SDS011;26462;47.384;19.218;2023-04-24T05:49:16;8.93;;;6.32;;
40757;SDS011;26462;47.384;19.218;2023-04-24T05:51:45;12.85;;;6.22;;
40757;SDS011;26462;47.384;19.218;2023-04-24T05:54:12;8.73;;;5.45;;
40757;SDS011;26462;47.384;19.218;2023-04-24T05:56:39;9.55;;;6.40;;
40757;SDS011;26462;47.384;19.218;2023-04-24T05:59:11;8.88;;;6.30;;
40757;SDS011;26462;47.384;19.218;2023-04-24T06:01:38;9.63;;;7.18;;
40757;SDS011;26462;47.384;19.218;2023-04-24T06:04:12;10.07;;;6.05;;
40757;SDS011;26462;47.384;19.218;2023-04-24T06:06:42;9.55;;;6.07;;
40757;SDS011;26462;47.384;19.218;2023-04-24T06:09:09;12.55;;;7.40;;
40757;SDS011;26462;47.384;19.218;2023-04-24T06:11:36;13.07;;;7.53;;
40757;SDS011;26462;47.384;19.218;2023-04-24T06:14:05;11.82;;;6.93;;
40757;SDS011;26462;47.384;19.218;2023-04-24T06:16:39;10.27;;;7.13;;
40757;SDS011;26462;47.384;19.218;2023-04-24T06:19:17;9.15;;;7.00;;
40757;SDS011;26462;47.384;19.218;2023-04-24T06:21:46;11.57;;;6.55;;
40757;SDS011;26462;47.384;19.218;2023-04-24T06:24:13;12.75;;;7.45;;
40757;SDS011;26462;47.384;19.218;2023-04-24T06:26:42;10.38;;;6.28;;
40757;SDS011;26462;47.384;19.218;2023-04-24T06:29:09;10.32;;;6.32;;
40757;SDS011;26462;47.384;19.218;2023-04-24T06:31:36;9.23;;;6.47;;
40757;SDS011;26462;47.384;19.218;2023-04-24T06:34:03;9.43;;;6.15;;
40757;SDS011;26462;47.384;19.218;2023-04-24T06:36:32;11.23;;;7.07;;
40757;SDS011;26462;47.384;19.218;2023-04-24T06:39:01;11.10;;;6.57;;
40757;SDS011;26462;47.384;19.218;2023-04-24T06:41:28;9.35;;;6.00;;
40757;SDS011;26462;47.384;19.218;2023-04-24T06:43:55;10.45;;;7.03;;
40757;SDS011;26462;47.384;19.218;2023-04-24T06:46:22;10.32;;;7.03;;
40757;SDS011;26462;47.384;19.218;2023-04-24T06:48:55;9.45;;;6.47;;
40757;SDS011;26462;47.384;19.218;2023-04-24T06:51:23;10.73;;;7.43;;
40757;SDS011;26462;47.384;19.218;2023-04-24T06:53:51;14.55;;;7.50;;
40757;SDS011;26462;47.384;19.218;2023-04-24T06:56:19;11.20;;;7.90;;
40757;SDS011;26462;47.384;19.218;2023-04-24T06:58:47;12.20;;;7.38;;
40757;SDS011;26462;47.384;19.218;2023-04-24T07:01:14;10.18;;;6.85;;
40757;SDS011;26462;47.384;19.218;2023-04-24T07:03:41;9.85;;;7.05;;
40757;SDS011;26462;47.384;19.218;2023-04-24T07:06:09;10.63;;;7.60;;
40757;SDS011;26462;47.384;19.218;2023-04-24T07:08:37;12.35;;;7.25;;
40757;SDS011;26462;47.384;19.218;2023-04-24T07:11:05;12.65;;;7.40;;
40757;SDS011;26462;47.384;19.218;2023-04-24T07:13:32;13.30;;;8.05;;
40757;SDS011;26462;47.384;19.218;2023-04-24T07:16:01;15.40;;;9.13;;
40757;SDS011;26462;47.384;19.218;2023-04-24T07:18:29;15.18;;;8.68;;
40757;SDS011;26462;47.384;19.218;2023-04-24T07:20:57;17.30;;;8.80;;
40757;SDS011;26462;47.384;19.218;2023-04-24T07:23:24;15.30;;;8.77;;
40757;SDS011;26462;47.384;19.218;2023-04-24T07:25:51;13.52;;;8.70;;
40757;SDS011;26462;47.384;19.218;2023-04-24T07:28:18;15.85;;;8.90;;
40757;SDS011;26462;47.384;19.218;2023-04-24T07:30:45;12.52;;;8.13;;
40757;SDS011;26462;47.384;19.218;2023-04-24T07:33:12;14.80;;;8.52;;
40757;SDS011;26462;47.384;19.218;2023-04-24T07:35:40;14.98;;;8.60;;
40757;SDS011;26462;47.384;19.218;2023-04-24T07:38:07;13.02;;;8.77;;
40757;SDS011;26462;47.384;19.218;2023-04-24T07:40:34;13.30;;;7.85;;
40757;SDS011;26462;47.384;19.218;2023-04-24T07:43:01;11.05;;;7.78;;
40757;SDS011;26462;47.384;19.218;2023-04-24T07:45:28;12.10;;;7.80;;
40757;SDS011;26462;47.384;19.218;2023-04-24T07:47:55;12.60;;;6.78;;
40757;SDS011;26462;47.384;19.218;2023-04-24T07:50:23;11.52;;;7.45;;
40757;SDS011;26462;47.384;19.218;2023-04-24T07:52:50;12.82;;;7.45;;
40757;SDS011;26462;47.384;19.218;2023-04-24T07:55:17;13.32;;;8.40;;
40757;SDS011;26462;47.384;19.218;2023-04-24T07:57:48;12.32;;;7.60;;
40757;SDS011;26462;47.384;19.218;2023-04-24T08:00:15;12.13;;;7.90;;
40757;SDS011;26462;47.384;19.218;2023-04-24T08:02:43;12.65;;;7.45;;
40757;SDS011;26462;47.384;19.218;2023-04-24T08:05:10;10.50;;;7.32;;
40757;SDS011;26462;47.384;19.218;2023-04-24T08:07:38;10.73;;;6.97;;
40757;SDS011;26462;47.384;19.218;2023-04-24T08:10:05;13.82;;;7.70;;
40757;SDS011;26462;47.384;19.218;2023-04-24T08:12:32;12.77;;;8.32;;
40757;SDS011;26462;47.384;19.218;2023-04-24T08:14:59;10.55;;;7.47;;
40757;SDS011;26462;47.384;19.218;2023-04-24T08:17:26;12.50;;;7.60;;
40757;SDS011;26462;47.384;19.218;2023-04-24T08:19:54;10.77;;;7.65;;
40757;SDS011;26462;47.384;19.218;2023-04-24T08:22:27;11.25;;;7.97;;
40757;SDS011;26462;47.384;19.218;2023-04-24T08:24:55;10.82;;;7.57;;
40757;SDS011;26462;47.384;19.218;2023-04-24T08:27:23;9.60;;;7.03;;
40757;SDS011;26462;47.384;19.218;2023-04-24T08:29:50;9.00;;;6.78;;
40757;SDS011;26462;47.384;19.218;2023-04-24T08:32:19;11.75;;;6.70;;
40757;SDS011;26462;47.384;19.218;2023-04-24T08:34:46;9.50;;;6.15;;
40757;SDS011;26462;47.384;19.218;2023-04-24T08:37:15;9.80;;;6.38;;
40757;SDS011;26462;47.384;19.218;2023-04-24T08:39:42;11.05;;;6.18;;
40757;SDS011;26462;47.384;19.218;2023-04-24T08:42:10;8.70;;;5.75;;
40757;SDS011;26462;47.384;19.218;2023-04-24T08:44:39;8.95;;;5.50;;
40757;SDS011;26462;47.384;19.218;2023-04-24T08:47:07;8.00;;;4.97;;
40757;SDS011;26462;47.384;19.218;2023-04-24T08:49:35;9.77;;;6.55;;
40757;SDS011;26462;47.384;19.218;2023-04-24T08:52:04;10.05;;;5.50;;
40757;SDS011;26462;47.384;19.218;2023-04-24T08:54:34;11.07;;;5.90;;
40757;SDS011;26462;47.384;19.218;2023-04-24T08:57:02;10.57;;;6.40;;
40757;SDS011;26462;47.384;19.218;2023-04-24T08:59:30;8.68;;;5.70;;
40757;SDS011;26462;47.384;19.218;2023-04-24T09:01:58;8.25;;;5.47;;
40757;SDS011;26462;47.384;19.218;2023-04-24T09:04:26;8.82;;;5.55;;
40757;SDS011;26462;47.384;19.218;2023-04-24T09:06:56;8.68;;;5.90;;
40757;SDS011;26462;47.384;19.218;2023-04-24T09:09:24;11.07;;;5.93;;
40757;SDS011;26462;47.384;19.218;2023-04-24T09:11:52;9.07;;;5.85;;
40757;SDS011;26462;47.384;19.218;2023-04-24T09:14:22;10.30;;;6.53;;
40757;SDS011;26462;47.384;19.218;2023-04-24T09:16:50;11.63;;;6.90;;
40757;SDS011;26462;47.384;19.218;2023-04-24T09:19:17;9.43;;;5.88;;
40757;SDS011;26462;47.384;19.218;2023-04-24T09:21:45;8.73;;;6.22;;
40757;SDS011;26462;47.384;19.218;2023-04-24T09:24:16;8.70;;;5.47;;
40757;SDS011;26462;47.384;19.218;2023-04-24T09:26:49;9.75;;;6.38;;
40757;SDS011;26462;47.384;19.218;2023-04-24T09:29:25;7.82;;;5.45;;
40757;SDS011;26462;47.384;19.218;2023-04-24T09:31:52;10.60;;;5.72;;
40757;SDS011;26462;47.384;19.218;2023-04-24T09:34:23;9.07;;;5.55;;
40757;SDS011;26462;47.384;19.218;2023-04-24T09:36:52;9.82;;;5.40;;
40757;SDS011;26462;47.384;19.218;2023-04-24T09:39:19;9.85;;;4.63;;
40757;SDS011;26462;47.384;19.218;2023-04-24T09:41:53;9.73;;;5.28;;
40757;SDS011;26462;47.384;19.218;2023-04-24T09:44:26;7.20;;;4.93;;
40757;SDS011;26462;47.384;19.218;2023-04-24T09:46:55;9.27;;;4.78;;
40757;SDS011;26462;47.384;19.218;2023-04-24T09:49:28;8.52;;;4.50;;
40757;SDS011;26462;47.384;19.218;2023-04-24T09:52:03;7.60;;;5.10;;
40757;SDS011;26462;47.384;19.218;2023-04-24T09:54:35;7.53;;;4.80;;
40757;SDS011;26462;47.384;19.218;2023-04-24T09:57:08;5.10;;;4.13;;
40757;SDS011;26462;47.384;19.218;2023-04-24T09:59:38;5.95;;;3.97;;
40757;SDS011;26462;47.384;19.218;2023-04-24T10:02:17;4.05;;;3.50;;
40757;SDS011;26462;47.384;19.218;2023-04-24T10:04:56;6.03;;;3.28;;
40757;SDS011;26462;47.384;19.218;2023-04-24T10:07:26;6.55;;;4.28;;
40757;SDS011;26462;47.384;19.218;2023-04-24T10:09:54;8.23;;;3.92;;
40757;SDS011;26462;47.384;19.218;2023-04-24T10:12:21;6.43;;;4.35;;
40757;SDS011;26462;47.384;19.218;2023-04-24T10:14:49;5.80;;;4.30;;
40757;SDS011;26462;47.384;19.218;2023-04-24T10:17:16;5.93;;;3.85;;
40757;SDS011;26462;47.384;19.218;2023-04-24T10:19:44;7.05;;;4.90;;
40757;SDS011;26462;47.384;19.218;2023-04-24T10:22:13;6.95;;;4.32;;
40757;SDS011;26462;47.384;19.218;2023-04-24T10:24:43;7.82;;;4.40;;
40757;SDS011;26462;47.384;19.218;2023-04-24T10:27:12;8.18;;;5.15;;
40757;SDS011;26462;47.384;19.218;2023-04-24T10:29:42;9.30;;;5.30;;
40757;SDS011;26462;47.384;19.218;2023-04-24T10:32:11;10.15;;;5.20;;
40757;SDS011;26462;47.384;19.218;2023-04-24T10:34:38;8.50;;;5.40;;
40757;SDS011;26462;47.384;19.218;2023-04-24T10:37:05;10.00;;;5.35;;
40757;SDS011;26462;47.384;19.218;2023-04-24T10:39:33;8.65;;;4.30;;
40757;SDS011;26462;47.384;19.218;2023-04-24T10:42:02;7.22;;;4.13;;
40757;SDS011;26462;47.384;19.218;2023-04-24T10:44:39;6.10;;;3.50;;
40757;SDS011;26462;47.384;19.218;2023-04-24T10:47:12;7.32;;;4.10;;
40757;SDS011;26462;47.384;19.218;2023-04-24T10:49:40;6.60;;;4.47;;
40757;SDS011;26462;47.384;19.218;2023-04-24T10:52:08;6.35;;;3.53;;
40757;SDS011;26462;47.384;19.218;2023-04-24T10:54:44;6.03;;;3.83;;
40757;SDS011;26462;47.384;19.218;2023-04-24T10:59:49;6.80;;;3.97;;
40757;SDS011;26462;47.384;19.218;2023-04-24T11:02:18;5.25;;;3.50;;
40757;SDS011;26462;47.384;19.218;2023-04-24T11:05:05;6.55;;;3.90;;
40757;SDS011;26462;47.384;19.218;2023-04-24T11:10:39;9.38;;;4.60;;
40757;SDS011;26462;47.384;19.218;2023-04-24T11:13:28;9.52;;;5.15;;
40757;SDS011;26462;47.384;19.218;2023-04-24T11:18:51;6.20;;;4.18;;
40757;SDS011;26462;47.384;19.218;2023-04-24T11:21:28;7.93;;;3.95;;
40757;SDS011;26462;47.384;19.218;2023-04-24T11:27:20;7.03;;;3.70;;
40757;SDS011;26462;47.384;19.218;2023-04-24T11:34:56;7.00;;;4.30;;
40757;SDS011;26462;47.384;19.218;2023-04-24T11:37:26;6.18;;;4.07;;
40757;SDS011;26462;47.384;19.218;2023-04-24T11:39:55;8.15;;;5.40;;
40757;SDS011;26462;47.384;19.218;2023-04-24T11:42:24;7.35;;;5.00;;
40757;SDS011;26462;47.384;19.218;2023-04-24T11:44:52;9.48;;;6.05;;
40757;SDS011;26462;47.384;19.218;2023-04-24T11:47:31;9.00;;;5.18;;
40757;SDS011;26462;47.384;19.218;2023-04-24T11:50:00;10.60;;;5.93;;
40757;SDS011;26462;47.384;19.218;2023-04-24T11:52:29;6.68;;;4.60;;
40757;SDS011;26462;47.384;19.218;2023-04-24T11:54:57;9.10;;;4.80;;
40757;SDS011;26462;47.384;19.218;2023-04-24T11:57:25;8.13;;;4.55;;
40757;SDS011;26462;47.384;19.218;2023-04-24T12:00:00;7.97;;;4.05;;
40757;SDS011;26462;47.384;19.218;2023-04-24T12:02:37;8.88;;;4.60;;
40757;SDS011;26462;47.384;19.218;2023-04-24T12:05:06;10.27;;;5.00;;
40757;SDS011;26462;47.384;19.218;2023-04-24T12:07:41;8.80;;;5.00;;
40757;SDS011;26462;47.384;19.218;2023-04-24T12:10:10;8.73;;;4.75;;
40757;SDS011;26462;47.384;19.218;2023-04-24T12:12:38;11.02;;;5.45;;
40757;SDS011;26462;47.384;19.218;2023-04-24T12:15:08;7.70;;;4.38;;
40757;SDS011;26462;47.384;19.218;2023-04-24T12:17:36;7.93;;;4.68;;
40757;SDS011;26462;47.384;19.218;2023-04-24T12:20:08;8.75;;;4.53;;
40757;SDS011;26462;47.384;19.218;2023-04-24T12:25:27;4.25;;;2.35;;
40757;SDS011;26462;47.384;19.218;2023-04-24T12:30:47;6.25;;;3.10;;
40757;SDS011;26462;47.384;19.218;2023-04-24T12:33:19;6.88;;;2.78;;
40757;SDS011;26462;47.384;19.218;2023-04-24T12:35:47;4.22;;;2.65;;
40757;SDS011;26462;47.384;19.218;2023-04-24T12:38:21;7.13;;;2.90;;
40757;SDS011;26462;47.384;19.218;2023-04-24T12:40:58;5.40;;;2.20;;
40757;SDS011;26462;47.384;19.218;2023-04-24T12:43:32;4.30;;;2.65;;
40757;SDS011;26462;47.384;19.218;2023-04-24T12:45:59;3.78;;;2.08;;
40757;SDS011;26462;47.384;19.218;2023-04-24T12:48:26;4.22;;;2.35;;
40757;SDS011;26462;47.384;19.218;2023-04-24T12:50:54;4.72;;;1.98;;
40757;SDS011;26462;47.384;19.218;2023-04-24T12:53:27;5.70;;;2.63;;
40757;SDS011;26462;47.384;19.218;2023-04-24T12:55:56;4.75;;;2.42;;
40757;SDS011;26462;47.384;19.218;2023-04-24T12:58:23;3.88;;;2.38;;
40757;SDS011;26462;47.384;19.218;2023-04-24T13:00:51;6.15;;;2.90;;
40757;SDS011;26462;47.384;19.218;2023-04-24T13:03:18;5.55;;;2.75;;
40757;SDS011;26462;47.384;19.218;2023-04-24T13:05:46;2.85;;;2.00;;
40757;SDS011;26462;47.384;19.218;2023-04-24T13:08:13;3.85;;;1.50;;
40757;SDS011;26462;47.384;19.218;2023-04-24T13:10:41;3.95;;;1.63;;
40757;SDS011;26462;47.384;19.218;2023-04-24T13:13:08;2.08;;;1.38;;
40757;SDS011;26462;47.384;19.218;2023-04-24T13:15:35;4.95;;;1.65;;
40757;SDS011;26462;47.384;19.218;2023-04-24T13:18:02;4.03;;;1.77;;
40757;SDS011;26462;47.384;19.218;2023-04-24T13:20:29;2.92;;;1.38;;
40757;SDS011;26462;47.384;19.218;2023-04-24T13:22:57;4.68;;;1.88;;
40757;SDS011;26462;47.384;19.218;2023-04-24T13:25:24;4.75;;;1.80;;
40757;SDS011;26462;47.384;19.218;2023-04-24T13:27:51;3.33;;;1.70;;
40757;SDS011;26462;47.384;19.218;2023-04-24T13:30:18;2.22;;;1.30;;
40757;SDS011;26462;47.384;19.218;2023-04-24T13:32:45;4.45;;;1.50;;
40757;SDS011;26462;47.384;19.218;2023-04-24T13:35:12;4.85;;;1.88;;
40757;SDS011;26462;47.384;19.218;2023-04-24T13:37:39;4.28;;;2.30;;
40757;SDS011;26462;47.384;19.218;2023-04-24T13:40:07;3.60;;;1.67;;
40757;SDS011;26462;47.384;19.218;2023-04-24T13:42:34;4.63;;;1.92;;
40757;SDS011;26462;47.384;19.218;2023-04-24T13:45:01;3.20;;;1.80;;
40757;SDS011;26462;47.384;19.218;2023-04-24T13:47:49;5.55;;;2.55;;
40757;SDS011;26462;47.384;19.218;2023-04-24T13:50:18;4.13;;;2.20;;
40757;SDS011;26462;47.384;19.218;2023-04-24T13:52:45;5.15;;;2.22;;
40757;SDS011;26462;47.384;19.218;2023-04-24T13:55:12;3.92;;;2.00;;
40757;SDS011;26462;47.384;19.218;2023-04-24T13:57:39;4.40;;;2.03;;
40757;SDS011;26462;47.384;19.218;2023-04-24T14:00:06;4.90;;;2.10;;
40757;SDS011;26462;47.384;19.218;2023-04-24T14:02:37;3.17;;;1.85;;
40757;SDS011;26462;47.384;19.218;2023-04-24T14:05:04;4.43;;;2.03;;
40757;SDS011;26462;47.384;19.218;2023-04-24T14:07:33;3.92;;;1.67;;
40757;SDS011;26462;47.384;19.218;2023-04-24T14:10:00;3.40;;;1.67;;
40757;SDS011;26462;47.384;19.218;2023-04-24T14:12:27;3.75;;;1.75;;
40757;SDS011;26462;47.384;19.218;2023-04-24T14:14:54;4.07;;;1.80;;
40757;SDS011;26462;47.384;19.218;2023-04-24T14:17:21;2.95;;;1.60;;
40757;SDS011;26462;47.384;19.218;2023-04-24T14:19:48;3.63;;;2.10;;
40757;SDS011;26462;47.384;19.218;2023-04-24T14:22:18;11.35;;;5.03;;
40757;SDS011;26462;47.384;19.218;2023-04-24T14:24:45;5.30;;;2.90;;
40757;SDS011;26462;47.384;19.218;2023-04-24T14:27:12;5.25;;;3.08;;
40757;SDS011;26462;47.384;19.218;2023-04-24T14:29:39;4.25;;;2.35;;
40757;SDS011;26462;47.384;19.218;2023-04-24T14:32:07;5.78;;;2.53;;
40757;SDS011;26462;47.384;19.218;2023-04-24T14:34:35;5.53;;;2.83;;
40757;SDS011;26462;47.384;19.218;2023-04-24T14:37:02;6.85;;;2.80;;
40757;SDS011;26462;47.384;19.218;2023-04-24T14:39:29;6.25;;;3.22;;
40757;SDS011;26462;47.384;19.218;2023-04-24T14:41:56;4.38;;;2.92;;
40757;SDS011;26462;47.384;19.218;2023-04-24T14:44:23;6.25;;;3.15;;
40757;SDS011;26462;47.384;19.218;2023-04-24T14:46:51;8.00;;;3.42;;
40757;SDS011;26462;47.384;19.218;2023-04-24T14:49:19;9.18;;;3.85;;
40757;SDS011;26462;47.384;19.218;2023-04-24T14:51:47;7.68;;;3.25;;
40757;SDS011;26462;47.384;19.218;2023-04-24T14:54:14;5.90;;;3.33;;
40757;SDS011;26462;47.384;19.218;2023-04-24T14:56:41;11.18;;;6.43;;
40757;SDS011;26462;47.384;19.218;2023-04-24T14:59:10;35.80;;;19.48;;
40757;SDS011;26462;47.384;19.218;2023-04-24T15:01:37;13.95;;;7.80;;